Time;durP1;ratioP1;P1;durP2;ratioP2;P2;SDS_P1;SDS_P2;PMS_P1;PMS_P2;Temp;Humidity;BMP_temperature;BMP_pressure;BME280_temperature;BME280_humidity;BME280_pressure;Samples;Min_cycle;Max_cycle;Signal;HPM_P1;HPM_P2
2022/02/05 00:00:30;;;;;;;;;17.75;12.00;;;;;20.59;33.23;101733.41;5040833;28;46010;-58
2022/02/05 00:08:15;;;;;;;;;13.00;9.75;;;;;20.55;33.20;101730.03;5058574;28;45492;-57
2022/02/05 00:11:18;;;;;;;;;12.50;11.00;;;;;20.55;33.06;101739.72;5058486;28;45234;-57
2022/02/05 00:14:18;;;;;;;;;13.00;11.00;;;;;20.53;33.11;101744.19;5058077;28;46500;-58
2022/02/05 00:43:14;;;;;;;;;8.25;7.50;;;;;20.43;33.44;101748.13;5058076;28;45483;-58
2022/02/05 00:45:44;;;;;;;;;6.75;6.75;;;;;20.42;33.03;101756.94;5057507;28;46350;-58
2022/02/05 00:48:12;;;;;;;;;6.25;6.00;;;;;20.41;32.99;101749.97;5039545;28;45313;-58
2022/02/05 00:50:41;;;;;;;;;7.25;7.25;;;;;20.40;33.23;101756.97;5057794;28;45421;-59
2022/02/05 00:53:22;;;;;;;;;10.75;7.75;;;;;20.39;32.72;101750.88;5057881;28;45362;-58
2022/02/05 00:55:54;;;;;;;;;8.75;6.25;;;;;20.39;33.09;101750.88;5057378;28;46229;-59
2022/02/05 00:58:20;;;;;;;;;7.25;5.75;;;;;20.38;32.73;101750.94;5040561;28;45704;-58
2022/02/05 01:00:45;;;;;;;;;5.50;4.00;;;;;20.37;33.04;101747.44;5057682;28;45297;-58
2022/02/05 01:03:10;;;;;;;;;10.50;9.00;;;;;20.37;33.07;101757.97;5057802;28;45287;-57
2022/02/05 01:05:36;;;;;;;;;8.00;7.00;;;;;20.36;33.26;101755.41;5039121;28;45348;-56
2022/02/05 01:08:02;;;;;;;;;7.75;6.25;;;;;20.36;33.04;101761.53;5057442;28;45446;-57
2022/02/05 01:10:28;;;;;;;;;6.75;6.00;;;;;20.34;32.88;101760.72;5057555;28;45213;-56
2022/02/05 01:13:05;;;;;;;;;8.00;6.00;;;;;20.35;33.07;101761.59;5057865;28;45169;-57
2022/02/05 01:15:36;;;;;;;;;6.00;5.00;;;;;20.34;33.11;101767.78;5056407;28;46409;-57
2022/02/05 01:18:05;;;;;;;;;7.00;7.00;;;;;20.34;32.87;101767.78;5057048;28;45391;-57
2022/02/05 01:23:16;;;;;;;;;9.00;7.00;;;;;20.39;33.30;101774.56;5057575;28;45339;-58
2022/02/05 01:25:55;;;;;;;;;4.50;4.50;;;;;20.43;33.36;101771.81;5057112;28;46918;-58
2022/02/05 01:28:27;;;;;;;;;6.25;5.50;;;;;20.51;33.44;101780.28;5056870;28;45736;-58
2022/02/05 01:30:55;;;;;;;;;4.25;3.75;;;;;20.57;32.85;101781.78;5056975;28;45299;-59
2022/02/05 02:11:32;;;;;;;;;3.50;3.50;;;;;21.08;32.85;101816.63;5056371;28;45828;-58
2022/02/05 02:21:59;;;;;;;;;4.25;4.25;;;;;21.10;32.61;101813.00;5056373;28;45621;-58
2022/02/05 02:24:36;;;;;;;;;7.00;3.75;;;;;21.11;32.42;101824.41;5055103;28;45302;-58
2022/02/05 02:32:14;;;;;;;;;3.25;3.25;;;;;21.11;32.83;101822.63;5062950;28;45850;-59
2022/02/05 02:34:45;;;;;;;;;5.50;3.50;;;;;21.11;32.86;101824.41;5044928;28;45371;-58
2022/02/05 02:37:16;;;;;;;;;3.00;2.75;;;;;21.09;32.62;101819.19;5063221;28;45183;-59
2022/02/05 02:42:16;;;;;;;;;5.25;3.00;;;;;21.10;32.50;101835.88;5062800;28;45280;-59
2022/02/05 02:44:42;;;;;;;;;3.75;3.00;;;;;21.07;32.99;101839.47;5062936;28;45391;-59
2022/02/05 02:47:07;;;;;;;;;3.75;2.50;;;;;21.08;32.49;101832.44;5063084;28;45540;-59
2022/02/05 02:49:46;;;;;;;;;3.00;3.00;;;;;21.07;32.63;101828.94;5062460;28;45411;-57
2022/02/05 02:57:50;;;;;;;;;5.75;3.00;;;;;21.05;32.59;101840.47;5062981;28;45551;-58
2022/02/05 03:00:16;;;;;;;;;4.00;3.00;;;;;21.03;32.51;101839.66;5062483;28;47001;-58
2022/02/05 03:02:41;;;;;;;;;3.00;3.00;;;;;21.04;32.40;101851.94;5062500;28;45383;-58
2022/02/05 03:05:07;;;;;;;;;3.00;3.00;;;;;21.03;32.80;101844.94;5062546;28;45304;-59
2022/02/05 03:07:32;;;;;;;;;2.50;2.50;;;;;21.01;32.39;101843.22;5063218;28;46032;-58
2022/02/05 03:09:57;;;;;;;;;2.25;2.00;;;;;20.99;32.82;101845.09;5062304;28;46417;-59
2022/02/05 03:12:23;;;;;;;;;5.50;2.75;;;;;20.99;32.32;101855.63;5062440;28;45236;-58
2022/02/05 03:14:49;;;;;;;;;1.75;1.75;;;;;20.99;32.76;101860.91;5062371;28;45668;-58
2022/02/05 03:18:04;;;;;;;;;2.75;2.75;;;;;20.97;32.34;101860.09;5062743;28;45450;-59
2022/02/05 03:20:04;;;;;;;;;3.00;3.00;;;;;20.96;32.70;101861.03;5056795;28;46441;-59
2022/02/05 03:22:30;;;;;;;;;5.00;3.00;;;;;20.95;32.68;101875.13;5062660;28;45280;-58
2022/02/05 03:24:55;;;;;;;;;2.00;2.00;;;;;20.96;32.67;101863.66;5061075;28;45283;-59
2022/02/05 03:27:21;;;;;;;;;2.25;2.00;;;;;20.94;32.75;101870.75;5062455;28;45216;-59
2022/02/05 03:29:49;;;;;;;;;3.00;2.00;;;;;20.94;33.08;101873.41;5062061;28;45236;-58
2022/02/05 03:32:16;;;;;;;;;3.00;3.00;;;;;20.93;32.32;101882.22;5062132;28;45396;-58
2022/02/05 03:34:42;;;;;;;;;3.50;2.00;;;;;20.92;32.16;101872.59;5062128;28;45393;-57
2022/02/05 03:37:08;;;;;;;;;5.00;2.25;;;;;20.91;32.24;101876.16;5062439;28;45493;-58
2022/02/05 03:39:34;;;;;;;;;1.00;1.00;;;;;20.89;32.54;101877.13;5059091;28;46324;-57
2022/02/05 03:42:00;;;;;;;;;4.25;3.00;;;;;20.89;32.33;101877.13;5058778;28;45342;-58
2022/02/05 03:44:25;;;;;;;;;3.50;2.75;;;;;20.87;32.58;101879.84;5058923;28;45209;-58
2022/02/05 03:46:53;;;;;;;;;2.00;2.00;;;;;20.87;32.55;101881.59;5058937;28;45593;-56
2022/02/05 03:49:19;;;;;;;;;2.25;2.25;;;;;20.85;32.92;101885.16;5058596;28;45442;-58
2022/02/05 03:51:46;;;;;;;;;2.00;2.00;;;;;20.85;32.59;101889.59;5058560;28;45394;-58
2022/02/05 03:54:13;;;;;;;;;4.00;2.25;;;;;20.84;32.61;101883.44;5058623;28;45299;-58
2022/02/05 03:56:38;;;;;;;;;2.50;2.50;;;;;20.82;32.37;101889.69;5058793;28;45398;-58
2022/02/05 03:59:04;;;;;;;;;2.50;1.25;;;;;20.80;32.51;101883.63;5058789;28;45429;-58
2022/02/05 04:01:29;;;;;;;;;2.25;2.25;;;;;20.79;32.81;101885.41;5058466;28;45363;-57
2022/02/05 04:03:54;;;;;;;;;1.00;1.00;;;;;20.79;32.87;101895.97;5058516;28;45220;-58
2022/02/05 04:06:20;;;;;;;;;3.00;2.00;;;;;20.78;32.81;101899.50;5058525;28;45660;-56
2022/02/05 04:08:47;;;;;;;;;3.00;3.00;;;;;20.77;32.55;101904.84;5058186;28;45462;-58
2022/02/05 04:16:42;;;;;;;;;2.00;2.00;;;;;20.73;32.90;101895.31;5058560;28;45339;-59
2022/02/05 04:19:07;;;;;;;;;2.25;2.25;;;;;20.72;32.36;101893.59;5058045;28;45486;-59
2022/02/05 04:21:33;;;;;;;;;2.00;2.00;;;;;20.72;32.48;101898.84;5058485;28;45324;-58
2022/02/05 04:24:02;;;;;;;;;1.75;1.25;;;;;20.72;32.21;101890.94;5058254;28;45363;-58
2022/02/05 04:26:29;;;;;;;;;2.00;1.75;;;;;20.70;32.86;101889.22;5058345;28;45533;-58
2022/02/05 04:28:56;;;;;;;;;2.00;1.00;;;;;20.69;32.66;101894.56;5057991;28;45332;-58
2022/02/05 04:31:22;;;;;;;;;1.75;1.75;;;;;20.68;32.81;101901.59;5057790;28;45893;-58
2022/02/05 04:33:47;;;;;;;;;2.25;2.25;;;;;20.66;32.55;101889.41;5058016;28;45263;-59
2022/02/05 04:36:14;;;;;;;;;2.00;2.00;;;;;20.67;32.41;101896.41;5058216;28;45308;-59
2022/02/05 04:38:43;;;;;;;;;3.00;1.00;;;;;20.64;32.75;101889.50;5057701;28;46233;-59
2022/02/05 04:41:20;;;;;;;;;2.00;2.00;;;;;20.62;32.51;101891.31;5039813;28;45737;-57
2022/02/05 04:54:36;;;;;;;;;2.25;1.75;;;;;20.58;32.63;101900.25;5057700;28;45346;-57
2022/02/05 05:20:40;;;;;;;;;1.00;1.00;;;;;20.49;32.54;101919.03;5057541;28;45861;-60
2022/02/05 05:23:06;;;;;;;;;2.50;2.00;;;;;20.48;32.49;101917.31;5057510;28;45402;-58
2022/02/05 05:25:31;;;;;;;;;3.50;1.75;;;;;20.48;32.70;101925.22;5057190;28;45394;-58
2022/02/05 05:27:57;;;;;;;;;2.50;1.25;;;;;20.46;32.38;101919.16;5057264;28;45355;-58
2022/02/05 05:30:22;;;;;;;;;3.25;3.25;;;;;20.47;33.03;101931.41;5056932;28;45929;-60
2022/02/05 05:32:47;;;;;;;;;1.75;1.75;;;;;20.45;32.63;101922.72;5057021;28;45283;-59
2022/02/05 05:35:13;;;;;;;;;1.00;1.00;;;;;20.45;32.63;101928.84;5056014;28;45342;-58
2022/02/05 05:37:38;;;;;;;;;2.50;2.50;;;;;20.44;32.44;101915.75;5057418;28;45334;-55
2022/02/05 05:40:04;;;;;;;;;1.75;1.75;;;;;20.44;33.01;101916.59;5038705;28;45447;-58
2022/02/05 05:42:39;;;;;;;;;3.00;1.75;;;;;20.42;32.88;101907.88;5056791;28;45225;-58
2022/02/05 05:47:58;;;;;;;;;2.50;1.25;;;;;20.42;32.85;101922.84;5056967;28;45312;-59
2022/02/05 05:53:08;;;;;;;;;1.00;1.00;;;;;20.39;32.71;101914.13;5040612;28;45827;-57
2022/02/05 05:55:34;;;;;;;;;1.25;1.00;;;;;20.42;32.82;101917.56;5055557;28;45455;-57
2022/02/05 05:58:00;;;;;;;;;3.50;1.00;;;;;20.42;33.03;101914.94;5057067;28;45393;-59
2022/02/05 06:00:26;;;;;;;;;2.50;1.00;;;;;20.47;32.69;101920.88;5056578;28;46576;-59
2022/02/05 06:02:52;;;;;;;;;1.50;1.50;;;;;20.51;32.89;101918.06;5055865;28;45946;-58
2022/02/05 06:05:18;;;;;;;;;1.50;1.00;;;;;20.56;33.00;101920.50;5038482;28;45304;-57
2022/02/05 06:07:43;;;;;;;;;1.50;1.50;;;;;20.65;32.88;101932.47;5056787;28;45268;-59
2022/02/05 06:10:09;;;;;;;;;1.25;1.25;;;;;20.68;32.84;101933.22;5056604;28;45369;-59
2022/02/05 06:12:35;;;;;;;;;0.50;0.50;;;;;20.75;33.01;101938.28;5056297;28;45364;-59
2022/02/05 06:15:03;;;;;;;;;1.75;1.75;;;;;20.81;32.58;101938.91;5056414;28;45489;-60
2022/02/05 06:17:29;;;;;;;;;1.00;1.00;;;;;20.87;32.55;101944.84;5056557;28;45591;-59
2022/02/05 06:19:55;;;;;;;;;0.75;0.50;;;;;20.92;32.82;101945.53;5056290;28;46325;-59
2022/02/05 06:22:21;;;;;;;;;2.25;1.00;;;;;20.96;32.60;101945.34;5056342;28;45258;-59
2022/02/05 06:24:46;;;;;;;;;1.00;1.00;;;;;21.00;32.76;101940.81;5056301;28;45783;-60
2022/02/05 06:27:12;;;;;;;;;2.50;2.00;;;;;21.02;32.72;101941.63;5056654;28;45519;-59
2022/02/05 06:29:37;;;;;;;;;1.25;0.00;;;;;21.08;32.79;101953.69;5055043;28;46295;-59
2022/02/05 06:32:03;;;;;;;;;0.25;0.25;;;;;21.09;32.37;101950.16;5056226;28;45158;-59
2022/02/05 06:34:29;;;;;;;;;1.25;1.25;;;;;21.13;32.40;101962.25;5056261;28;45308;-59
2022/02/05 06:36:54;;;;;;;;;1.00;1.00;;;;;21.14;32.39;101949.03;5056335;28;45299;-59
2022/02/05 06:39:21;;;;;;;;;2.00;0.75;;;;;21.14;32.85;101949.03;5055944;28;47365;-59
2022/02/05 06:41:47;;;;;;;;;3.00;1.25;;;;;21.19;32.06;101961.16;5037980;28;45415;-59
2022/02/05 06:44:13;;;;;;;;;1.00;1.00;;;;;21.17;32.06;101953.31;5056447;28;45404;-58
2022/02/05 06:46:39;;;;;;;;;1.00;1.00;;;;;21.19;32.48;101958.53;5056679;28;45384;-59
2022/02/05 06:49:05;;;;;;;;;1.00;1.00;;;;;21.17;32.00;101954.16;5055913;28;46289;-59
2022/02/05 06:51:30;;;;;;;;;2.00;2.00;;;;;21.20;32.71;101966.38;5055802;28;45265;-58
2022/02/05 06:53:56;;;;;;;;;2.75;2.75;;;;;21.20;32.71;101970.78;5056050;28;45258;-59
2022/02/05 06:56:21;;;;;;;;;3.50;1.00;;;;;21.21;32.39;101983.94;5056204;28;45240;-59
2022/02/05 06:58:48;;;;;;;;;1.00;1.00;;;;;21.20;32.18;101990.13;5055804;28;45331;-58
2022/02/05 07:01:13;;;;;;;;;1.75;1.75;;;;;21.20;32.66;101998.03;5054897;28;45344;-57
2022/02/05 07:03:39;;;;;;;;;2.00;1.00;;;;;21.20;32.27;102003.31;5056336;28;45845;-58
2022/02/05 07:06:05;;;;;;;;;3.75;1.00;;;;;21.19;32.54;102004.22;5056037;28;45331;-58
2022/02/05 07:08:31;;;;;;;;;1.50;1.00;;;;;21.20;32.59;102005.94;5055502;28;46503;-58
2022/02/05 07:10:56;;;;;;;;;1.00;1.00;;;;;21.19;32.11;102004.22;5055705;28;45469;-58
2022/02/05 07:13:22;;;;;;;;;1.75;1.00;;;;;21.18;32.18;102002.50;5056018;28;45319;-58
2022/02/05 07:20:59;;;;;;;;;0.75;0.75;;;;;21.16;32.38;102022.78;5059311;28;45454;-59
2022/02/05 07:31:20;;;;;;;;;3.00;1.75;;;;;20.29;31.24;102023.31;5058887;28;45517;-57
2022/02/05 07:33:46;;;;;;;;;4.50;2.75;;;;;20.06;31.09;102032.03;5041323;28;45471;-57
2022/02/05 07:36:13;;;;;;;;;3.00;3.00;;;;;19.83;31.13;102024.88;5059704;28;45566;-56
2022/02/05 07:38:39;;;;;;;;;4.50;1.75;;;;;19.61;30.85;102029.09;5057682;28;47164;-56
2022/02/05 07:41:05;;;;;;;;;1.50;1.50;;;;;19.39;31.26;102021.00;5058982;28;45268;-57
2022/02/05 07:43:34;;;;;;;;;4.00;2.00;;;;;19.22;31.31;102024.16;5059007;28;46013;-57
2022/02/05 07:46:04;;;;;;;;;1.50;1.50;;;;;19.07;31.33;102028.13;5041102;28;45590;-57
2022/02/05 07:48:30;;;;;;;;;5.50;3.00;;;;;18.94;31.65;102029.41;5058568;28;45653;-56
2022/02/05 07:50:56;;;;;;;;;3.50;2.00;;;;;18.80;31.51;102040.28;5058642;28;46481;-56
2022/02/05 07:53:22;;;;;;;;;3.25;2.50;;;;;18.69;31.75;102046.69;5058662;28;45343;-58
2022/02/05 07:55:48;;;;;;;;;3.50;1.25;;;;;18.77;32.25;102041.25;5058823;28;45454;-57
2022/02/05 07:58:14;;;;;;;;;2.50;2.00;;;;;18.93;32.60;102038.16;5058902;28;45641;-57
2022/02/05 08:00:39;;;;;;;;;3.00;3.00;;;;;19.07;32.06;102036.00;5058576;28;45398;-56
2022/02/05 08:03:06;;;;;;;;;1.00;1.00;;;;;19.22;32.05;102044.34;5058658;28;45879;-57
2022/02/05 08:05:31;;;;;;;;;2.75;2.25;;;;;19.35;32.40;102039.56;5058777;28;45344;-56
2022/02/05 08:07:58;;;;;;;;;2.00;2.00;;;;;19.45;31.99;102043.63;5058351;28;46376;-59
2022/02/05 08:10:29;;;;;;;;;3.50;2.25;;;;;19.54;32.23;102042.47;5058258;28;45280;-58
2022/02/05 08:12:56;;;;;;;;;2.00;2.00;;;;;19.61;32.30;102039.59;5058270;28;45423;-58
2022/02/05 08:15:28;;;;;;;;;1.00;1.00;;;;;19.70;31.93;102045.47;5058303;28;45237;-58
2022/02/05 08:17:54;;;;;;;;;3.00;2.75;;;;;19.76;31.82;102043.50;5058074;28;47285;-57
2022/02/05 08:20:20;;;;;;;;;1.25;1.25;;;;;19.82;31.95;102039.81;5058127;28;45368;-58
2022/02/05 08:22:45;;;;;;;;;2.50;2.50;;;;;19.86;32.25;102035.34;5058739;28;45208;-56
2022/02/05 08:25:10;;;;;;;;;2.00;2.00;;;;;19.92;31.94;102040.38;5057714;28;45665;-57
2022/02/05 08:27:36;;;;;;;;;3.00;1.00;;;;;19.95;32.15;102028.91;5058041;28;46260;-57
2022/02/05 08:30:07;;;;;;;;;0.75;0.75;;;;;19.99;31.81;102020.84;5039789;28;45463;-58
2022/02/05 08:32:33;;;;;;;;;0.75;0.75;;;;;20.02;32.19;102025.16;5058167;28;45332;-57
2022/02/05 08:35:00;;;;;;;;;1.25;1.25;;;;;20.02;32.13;102018.09;5058375;28;45789;-57
2022/02/05 08:37:27;;;;;;;;;1.00;1.00;;;;;20.06;31.91;102027.63;5057684;28;46665;-58
2022/02/05 08:39:52;;;;;;;;;1.75;1.00;;;;;20.07;31.70;102029.34;5057839;28;45699;-58
2022/02/05 08:42:18;;;;;;;;;1.25;1.25;;;;;20.10;32.16;102031.00;5058134;28;45241;-58
2022/02/05 08:44:43;;;;;;;;;1.50;1.50;;;;;20.12;32.30;102031.81;5058353;28;45632;-58
2022/02/05 08:47:09;;;;;;;;;1.00;1.00;;;;;20.13;32.23;102028.28;5057744;28;46167;-57
2022/02/05 08:49:34;;;;;;;;;3.00;0.75;;;;;20.14;32.00;102032.63;5057658;28;45240;-57
2022/02/05 08:52:02;;;;;;;;;1.00;1.00;;;;;20.16;31.98;102029.94;5057636;28;45442;-57
2022/02/05 08:54:28;;;;;;;;;3.50;2.00;;;;;20.18;32.34;102030.75;5057861;28;45455;-57
2022/02/05 08:56:54;;;;;;;;;2.00;1.75;;;;;20.18;32.35;102028.13;5057375;28;45943;-57
2022/02/05 08:59:21;;;;;;;;;2.00;2.00;;;;;20.19;31.68;102032.47;5056214;28;45353;-57
2022/02/05 09:04:36;;;;;;;;;1.25;1.25;;;;;20.21;32.34;102049.06;5057950;28;45396;-57
2022/02/05 09:07:00;;;;;;;;;2.00;0.75;;;;;20.22;32.05;102048.16;5056985;28;45481;-57
2022/02/05 09:14:41;;;;;;;;;0.00;0.00;;;;;20.25;31.98;102053.28;5035919;28;45407;-57
2022/02/05 09:17:07;;;;;;;;;1.50;1.00;;;;;20.24;32.00;102046.31;5057121;28;46329;-57
2022/02/05 09:19:33;;;;;;;;;4.25;1.00;;;;;20.25;32.18;102048.03;5055772;28;45284;-57
2022/02/05 09:21:59;;;;;;;;;2.50;1.25;;;;;20.25;32.24;102055.94;5057310;28;45320;-57
2022/02/05 09:24:25;;;;;;;;;2.00;2.00;;;;;20.26;32.09;102054.19;5057315;28;45409;-57
2022/02/05 09:26:58;;;;;;;;;2.25;1.25;;;;;20.25;31.86;102048.03;5057276;28;45351;-58
2022/02/05 09:29:24;;;;;;;;;3.00;1.50;;;;;20.25;32.23;102053.28;5057128;28;45422;-58
2022/02/05 09:31:49;;;;;;;;;1.75;1.75;;;;;20.26;32.25;102052.38;5057379;28;45409;-57
2022/02/05 09:34:15;;;;;;;;;1.25;1.25;;;;;20.26;31.90;102048.91;5055937;28;45564;-57
2022/02/05 09:36:42;;;;;;;;;1.00;1.00;;;;;20.25;32.57;102048.03;5056039;28;46300;-57
2022/02/05 09:39:09;;;;;;;;;2.50;1.25;;;;;20.29;32.12;102048.78;5056998;28;45889;-57
2022/02/05 09:41:35;;;;;;;;;1.00;1.00;;;;;20.28;32.19;102042.66;5055937;28;45288;-57
2022/02/05 09:44:02;;;;;;;;;3.00;1.75;;;;;20.27;32.41;102051.47;5057223;28;45238;-56
2022/02/05 09:46:28;;;;;;;;;2.00;0.75;;;;;20.27;32.50;102046.22;5056759;28;45481;-57
2022/02/05 09:48:54;;;;;;;;;3.75;2.00;;;;;20.27;32.46;102043.56;5056786;28;45351;-56
2022/02/05 09:51:24;;;;;;;;;1.50;1.00;;;;;20.28;32.77;102053.19;5057094;28;45422;-56
2022/02/05 09:53:52;;;;;;;;;1.75;1.75;;;;;20.28;32.67;102047.94;5057476;28;45499;-56
2022/02/05 09:56:18;;;;;;;;;2.00;2.00;;;;;20.28;32.82;102052.34;5056889;28;46254;-57
2022/02/05 09:58:45;;;;;;;;;2.25;2.25;;;;;20.29;32.58;102057.56;5056640;28;45923;-57
2022/02/05 10:01:18;;;;;;;;;1.00;1.00;;;;;20.27;32.57;102062.00;5056818;28;45362;-57
2022/02/05 10:03:45;;;;;;;;;2.25;1.00;;;;;20.28;32.30;102058.47;5056998;28;45352;-58
2022/02/05 10:06:22;;;;;;;;;1.25;1.25;;;;;20.29;32.24;102064.56;5056400;28;46492;-58
2022/02/05 10:08:58;;;;;;;;;0.50;0.25;;;;;20.29;32.95;102065.44;5056562;28;45331;-57
2022/02/05 10:11:23;;;;;;;;;1.25;1.25;;;;;20.30;32.43;102072.44;5056440;28;45367;-57
2022/02/05 10:13:49;;;;;;;;;3.50;2.00;;;;;20.30;32.83;102072.44;5057130;28;45635;-58
2022/02/05 10:16:14;;;;;;;;;2.25;1.25;;;;;20.30;32.97;102066.28;5056431;28;45395;-57
2022/02/05 10:18:45;;;;;;;;;1.00;1.00;;;;;20.32;32.77;102068.00;5056392;28;45304;-58
2022/02/05 10:21:22;;;;;;;;;1.50;1.50;;;;;20.33;32.81;102077.59;5056589;28;45423;-63
2022/02/05 10:23:54;;;;;;;;;4.75;2.00;;;;;20.35;33.17;102073.13;5056583;28;45540;-66
2022/02/05 10:26:39;;;;;;;;;2.75;1.75;;;;;20.37;33.38;102070.47;5056610;28;45684;-57
2022/02/05 10:29:16;;;;;;;;;2.25;2.00;;;;;20.38;33.25;102078.28;5038214;28;45883;-60
2022/02/05 10:32:14;;;;;;;;;1.25;1.25;;;;;20.42;33.22;102080.81;5056331;28;45334;-58
2022/02/05 10:35:03;;;;;;;;;1.50;1.50;;;;;20.42;33.42;102081.66;5056243;28;45568;-58
2022/02/05 10:37:36;;;;;;;;;0.50;0.50;;;;;20.39;32.83;102082.66;5056150;28;46287;-57
2022/02/05 10:40:12;;;;;;;;;3.00;2.00;;;;;20.39;33.05;102087.91;5056016;28;45739;-59
2022/02/05 10:45:25;;;;;;;;;2.00;1.75;;;;;20.33;32.69;102087.25;5056079;28;45371;-58
2022/02/05 10:47:55;;;;;;;;;2.00;1.00;;;;;20.32;33.15;102093.44;5056257;28;45450;-58
2022/02/05 10:50:22;;;;;;;;;1.50;1.50;;;;;20.29;32.85;102094.41;5059737;28;45316;-58
2022/02/05 10:52:50;;;;;;;;;3.00;3.00;;;;;20.29;33.37;102099.69;5059892;28;45291;-58
2022/02/05 10:58:13;;;;;;;;;1.50;1.00;;;;;20.32;33.27;102101.34;5059521;28;45364;-54
2022/02/05 11:05:51;;;;;;;;;1.50;1.00;;;;;20.32;33.35;102107.47;5059499;28;45428;-57
2022/02/05 11:08:22;;;;;;;;;3.00;1.00;;;;;20.34;33.38;102100.38;5059278;28;45516;-55
2022/02/05 11:13:26;;;;;;;;;1.00;0.25;;;;;20.34;33.64;102105.63;5059528;28;45406;-56
2022/02/05 11:21:37;;;;;;;;;2.00;1.75;;;;;20.32;33.34;102107.47;5016972;28;45289;-56
2022/02/05 11:24:06;;;;;;;;;1.00;1.00;;;;;20.33;33.38;102103.94;5050150;28;45372;-56
2022/02/05 11:26:33;;;;;;;;;3.00;1.75;;;;;20.33;33.36;102098.66;5059393;28;45244;-57
2022/02/05 11:29:03;;;;;;;;;1.50;0.00;;;;;20.34;33.65;102099.53;5040897;28;46332;-57
2022/02/05 11:31:43;;;;;;;;;2.00;1.00;;;;;20.32;33.63;102096.94;5040801;28;45456;-55
2022/02/05 11:34:11;;;;;;;;;1.25;1.00;;;;;20.33;33.41;102088.13;5059149;28;45414;-55
2022/02/05 11:36:43;;;;;;;;;1.50;1.50;;;;;20.33;33.34;102089.91;5059512;28;45870;-54
2022/02/05 11:39:16;;;;;;;;;0.50;0.50;;;;;20.33;33.42;102084.63;5058707;28;47070;-58
2022/02/05 11:41:44;;;;;;;;;1.00;1.00;;;;;20.33;33.39;102082.00;5058899;28;45295;-55
2022/02/05 11:44:28;;;;;;;;;1.75;0.00;;;;;20.33;33.68;102080.25;5058905;28;45306;-55
2022/02/05 11:47:06;;;;;;;;;3.25;2.00;;;;;20.33;33.29;102082.00;5059353;28;45410;-55
2022/02/05 11:49:53;;;;;;;;;3.50;1.75;;;;;20.32;33.40;102081.16;5058513;28;45314;-55
2022/02/05 11:52:36;;;;;;;;;2.00;1.00;;;;;20.32;33.82;102068.00;5058573;28;45388;-60
2022/02/05 11:55:16;;;;;;;;;3.00;1.00;;;;;20.34;33.47;102075.81;5058870;28;45329;-57
2022/02/05 11:57:47;;;;;;;;;0.00;0.00;;;;;20.33;33.62;102077.59;5058721;28;45473;-55
2022/02/05 12:00:23;;;;;;;;;1.25;1.25;;;;;20.33;33.22;102077.59;5057687;28;45507;-55
2022/02/05 12:02:58;;;;;;;;;0.75;0.25;;;;;20.33;33.89;102068.84;5058510;28;45410;-56
2022/02/05 12:05:35;;;;;;;;;1.75;0.00;;;;;20.31;33.32;102070.66;5058924;28;45560;-58
2022/02/05 12:08:03;;;;;;;;;1.00;1.00;;;;;20.33;33.39;102063.56;5057463;28;45342;-57
2022/02/05 12:10:35;;;;;;;;;1.00;1.00;;;;;20.32;33.56;102070.63;5058675;28;46743;-57
2022/02/05 12:13:34;;;;;;;;;1.50;1.50;;;;;20.32;33.26;102059.22;5058380;28;45788;-57
2022/02/05 12:15:59;;;;;;;;;1.00;1.00;;;;;20.32;33.56;102052.19;5058521;28;45272;-57
2022/02/05 12:18:30;;;;;;;;;0.00;0.00;;;;;20.30;33.43;102046.13;5058871;28;45621;-58
2022/02/05 12:21:00;;;;;;;;;2.00;0.75;;;;;20.31;33.39;102047.84;5058325;28;45587;-58
2022/02/05 12:26:17;;;;;;;;;2.00;0.25;;;;;20.33;33.93;102046.00;5040686;28;45752;-57
2022/02/05 12:28:44;;;;;;;;;3.00;1.00;;;;;20.30;33.55;102043.47;5058356;28;45414;-57
2022/02/05 12:31:21;;;;;;;;;1.00;1.00;;;;;20.32;34.03;102041.66;5058035;28;45422;-58
2022/02/05 12:34:19;;;;;;;;;2.00;1.00;;;;;20.32;33.66;102052.19;5058058;28;45347;-58
2022/02/05 12:36:51;;;;;;;;;1.00;1.00;;;;;20.32;34.03;102043.41;4985975;28;45384;-56
2022/02/05 12:39:18;;;;;;;;;0.50;0.50;;;;;20.33;33.78;102040.75;5058261;28;45561;-57
2022/02/05 12:42:02;;;;;;;;;1.00;1.00;;;;;20.32;34.01;102027.63;5057929;28;46652;-57
2022/02/05 12:44:29;;;;;;;;;2.00;1.00;;;;;20.31;34.15;102026.78;5058220;28;45387;-56
2022/02/05 12:47:02;;;;;;;;;1.00;1.00;;;;;20.32;33.88;102025.88;5058072;28;45395;-58
2022/02/05 12:49:41;;;;;;;;;1.25;1.00;;;;;20.30;34.00;102022.41;5058376;28;45512;-57
2022/02/05 12:52:06;;;;;;;;;0.75;0.75;;;;;20.28;33.64;102026.88;5056144;28;45980;-58
2022/02/05 12:54:34;;;;;;;;;2.00;2.00;;;;;20.26;33.41;102023.44;5057597;28;45316;-57
2022/02/05 12:57:00;;;;;;;;;1.00;1.00;;;;;20.23;33.65;102031.44;5040072;28;45384;-61
2022/02/05 12:59:36;;;;;;;;;1.00;1.00;;;;;20.21;33.15;102030.66;5058213;28;45569;-59
2022/02/05 13:02:07;;;;;;;;;2.00;2.00;;;;;20.17;33.22;102034.28;5057711;28;45461;-59
2022/02/05 13:04:38;;;;;;;;;2.25;1.00;;;;;20.16;33.43;102036.06;5057126;28;45378;-61
2022/02/05 13:07:18;;;;;;;;;1.25;1.00;;;;;20.16;32.86;102035.19;5057231;28;45315;-60
2022/02/05 13:09:53;;;;;;;;;1.75;1.75;;;;;20.15;32.74;102036.09;5039756;28;45506;-60
2022/02/05 13:12:23;;;;;;;;;1.75;1.25;;;;;20.13;32.95;102033.53;5057390;28;47044;-60
2022/02/05 13:15:01;;;;;;;;;2.00;0.75;;;;;20.11;32.95;102023.97;5057283;28;45347;-60
2022/02/05 13:36:12;;;;;;;;;2.00;1.00;;;;;20.02;32.15;102010.22;5057220;28;45371;-60
2022/02/05 13:39:06;;;;;;;;;1.00;1.00;;;;;20.02;31.80;102018.09;5057121;28;45656;-60
2022/02/05 13:41:38;;;;;;;;;1.00;1.00;;;;;20.00;31.83;102006.78;5057646;28;45370;-60
2022/02/05 13:44:04;;;;;;;;;1.75;1.00;;;;;20.00;31.67;102012.06;5056780;28;46670;-60
2022/02/05 13:46:29;;;;;;;;;1.00;1.00;;;;;19.99;31.47;102005.06;5057134;28;45365;-59
2022/02/05 13:49:13;;;;;;;;;1.00;1.00;;;;;19.97;32.05;102001.63;5056979;28;45791;-60
2022/02/05 13:51:38;;;;;;;;;1.25;1.25;;;;;19.97;31.75;101995.50;5056975;28;45430;-60
2022/02/05 13:54:03;;;;;;;;;2.50;1.50;;;;;19.98;31.87;101992.81;5056658;28;45338;-60
2022/02/05 13:56:33;;;;;;;;;3.00;1.00;;;;;19.97;31.30;101998.13;5056884;28;45449;-61
2022/02/05 13:59:00;;;;;;;;;1.75;1.00;;;;;19.96;31.52;101999.91;5057290;28;45301;-59
2022/02/05 14:01:27;;;;;;;;;2.25;1.00;;;;;19.95;31.31;101992.91;5056995;28;45390;-61
2022/02/05 14:03:53;;;;;;;;;1.75;1.75;;;;;19.92;31.59;101987.75;5056718;28;45628;-60
2022/02/05 14:06:18;;;;;;;;;2.00;0.75;;;;;19.92;31.49;101993.91;5056580;28;45355;-59
2022/02/05 14:08:45;;;;;;;;;1.75;1.00;;;;;19.94;31.56;101993.84;5056777;28;45378;-59
2022/02/05 14:11:13;;;;;;;;;3.00;0.00;;;;;19.93;31.31;101995.63;5055489;28;45244;-59
2022/02/05 14:13:40;;;;;;;;;2.00;1.25;;;;;19.92;31.13;101995.66;5056391;28;45445;-59
2022/02/05 14:16:07;;;;;;;;;2.00;2.00;;;;;19.92;31.63;101993.03;5056633;28;45442;-58
2022/02/05 14:18:49;;;;;;;;;2.75;2.00;;;;;19.91;31.25;101991.28;5055597;28;45312;-59
2022/02/05 14:21:15;;;;;;;;;2.00;2.00;;;;;19.89;30.93;101987.88;5056751;28;45372;-60
2022/02/05 14:23:52;;;;;;;;;1.25;1.25;;;;;19.86;31.36;101977.47;5055681;28;46369;-58
2022/02/05 14:26:31;;;;;;;;;1.00;1.00;;;;;19.89;31.08;101977.34;5056393;28;45438;-59
2022/02/05 14:28:58;;;;;;;;;3.50;2.00;;;;;19.88;31.35;101978.28;5056493;28;45182;-58
2022/02/05 14:42:03;;;;;;;;;1.50;1.50;;;;;19.86;30.76;101993.25;5056797;28;45394;-59
2022/02/05 14:44:28;;;;;;;;;0.75;0.75;;;;;19.83;31.20;101991.56;5038065;28;48340;-59
2022/02/05 14:46:54;;;;;;;;;1.00;0.00;;;;;19.84;30.73;101998.53;5056098;28;45242;-67
2022/02/05 14:49:19;;;;;;;;;4.50;2.00;;;;;19.87;30.89;101995.81;5056238;28;45205;-61
2022/02/05 14:51:45;;;;;;;;;3.75;1.25;;;;;19.88;31.33;101992.28;5056252;28;45217;-59
2022/02/05 14:54:10;;;;;;;;;0.75;0.75;;;;;19.93;30.57;101986.84;5056024;28;45492;-59
2022/02/05 14:56:36;;;;;;;;;1.75;1.00;;;;;19.99;30.78;101994.53;5056334;28;45414;-63
2022/02/05 14:59:04;;;;;;;;;1.00;1.00;;;;;20.03;30.99;101996.13;5056583;28;45677;-59
2022/02/05 15:01:29;;;;;;;;;2.00;2.00;;;;;20.09;30.60;101995.06;5056113;28;45309;-60
2022/02/05 15:03:55;;;;;;;;;1.00;1.00;;;;;20.14;30.66;101998.41;5055937;28;46080;-59